sensor_id;sensor_type;location;lat;lon;timestamp;P1;durP1;ratioP1;P2;durP2;ratioP2
71164;SDS011;58859;55.132;-1.586;2022-10-31T00:00:20;5.17;;;1.80;;
71164;SDS011;58859;55.132;-1.586;2022-10-31T00:02:46;3.60;;;1.45;;
71164;SDS011;58859;55.132;-1.586;2022-10-31T00:05:11;7.73;;;1.53;;
71164;SDS011;58859;55.132;-1.586;2022-10-31T00:07:37;5.13;;;1.10;;
71164;SDS011;58859;55.132;-1.586;2022-10-31T00:10:02;2.57;;;1.33;;
71164;SDS011;58859;55.132;-1.586;2022-10-31T00:12:28;4.70;;;1.63;;
71164;SDS011;58859;55.132;-1.586;2022-10-31T00:14:54;9.63;;;1.80;;
71164;SDS011;58859;55.132;-1.586;2022-10-31T00:17:19;6.10;;;1.50;;
71164;SDS011;58859;55.132;-1.586;2022-10-31T00:19:44;5.00;;;1.63;;
71164;SDS011;58859;55.132;-1.586;2022-10-31T00:22:10;7.38;;;1.52;;
71164;SDS011;58859;55.132;-1.586;2022-10-31T00:24:35;6.53;;;1.70;;
71164;SDS011;58859;55.132;-1.586;2022-10-31T00:27:00;7.20;;;1.73;;
71164;SDS011;58859;55.132;-1.586;2022-10-31T00:29:26;5.67;;;1.63;;
71164;SDS011;58859;55.132;-1.586;2022-10-31T00:31:51;4.72;;;1.80;;
71164;SDS011;58859;55.132;-1.586;2022-10-31T00:34:17;9.80;;;2.00;;
71164;SDS011;58859;55.132;-1.586;2022-10-31T00:36:42;4.93;;;2.27;;
71164;SDS011;58859;55.132;-1.586;2022-10-31T00:39:08;9.77;;;2.00;;
71164;SDS011;58859;55.132;-1.586;2022-10-31T00:41:33;4.25;;;1.67;;
71164;SDS011;58859;55.132;-1.586;2022-10-31T00:43:58;8.63;;;1.40;;
71164;SDS011;58859;55.132;-1.586;2022-10-31T00:46:24;6.43;;;2.50;;
71164;SDS011;58859;55.132;-1.586;2022-10-31T00:48:49;6.80;;;2.97;;
71164;SDS011;58859;55.132;-1.586;2022-10-31T00:51:15;6.60;;;2.20;;
71164;SDS011;58859;55.132;-1.586;2022-10-31T00:53:40;5.93;;;2.20;;
71164;SDS011;58859;55.132;-1.586;2022-10-31T00:56:05;5.93;;;1.37;;
71164;SDS011;58859;55.132;-1.586;2022-10-31T00:58:31;5.45;;;2.10;;
71164;SDS011;58859;55.132;-1.586;2022-10-31T01:00:56;4.93;;;2.03;;
71164;SDS011;58859;55.132;-1.586;2022-10-31T01:03:26;7.00;;;2.20;;
71164;SDS011;58859;55.132;-1.586;2022-10-31T01:06:00;4.68;;;1.50;;
71164;SDS011;58859;55.132;-1.586;2022-10-31T01:08:26;8.38;;;1.63;;
71164;SDS011;58859;55.132;-1.586;2022-10-31T01:11:05;5.27;;;2.00;;
71164;SDS011;58859;55.132;-1.586;2022-10-31T01:13:42;5.55;;;2.25;;
71164;SDS011;58859;55.132;-1.586;2022-10-31T01:16:08;4.43;;;2.10;;
71164;SDS011;58859;55.132;-1.586;2022-10-31T01:18:35;7.28;;;3.13;;
71164;SDS011;58859;55.132;-1.586;2022-10-31T01:21:02;7.03;;;2.10;;
71164;SDS011;58859;55.132;-1.586;2022-10-31T01:23:29;9.80;;;2.10;;
71164;SDS011;58859;55.132;-1.586;2022-10-31T01:25:59;6.07;;;1.93;;
71164;SDS011;58859;55.132;-1.586;2022-10-31T01:31:12;7.47;;;2.03;;
71164;SDS011;58859;55.132;-1.586;2022-10-31T01:33:37;3.10;;;1.90;;
71164;SDS011;58859;55.132;-1.586;2022-10-31T01:36:13;5.37;;;1.80;;
71164;SDS011;58859;55.132;-1.586;2022-10-31T01:38:58;5.45;;;1.73;;
71164;SDS011;58859;55.132;-1.586;2022-10-31T01:41:29;3.28;;;2.05;;
71164;SDS011;58859;55.132;-1.586;2022-10-31T01:43:57;8.85;;;2.22;;
71164;SDS011;58859;55.132;-1.586;2022-10-31T01:48:57;6.27;;;2.13;;
71164;SDS011;58859;55.132;-1.586;2022-10-31T01:51:26;5.75;;;1.77;;
71164;SDS011;58859;55.132;-1.586;2022-10-31T01:53:55;9.18;;;2.22;;
71164;SDS011;58859;55.132;-1.586;2022-10-31T01:56:22;6.47;;;2.05;;
71164;SDS011;58859;55.132;-1.586;2022-10-31T01:58:48;7.63;;;1.53;;
71164;SDS011;58859;55.132;-1.586;2022-10-31T02:01:14;6.10;;;1.70;;
71164;SDS011;58859;55.132;-1.586;2022-10-31T02:03:41;3.83;;;1.38;;
71164;SDS011;58859;55.132;-1.586;2022-10-31T02:06:07;4.73;;;2.00;;
71164;SDS011;58859;55.132;-1.586;2022-10-31T02:08:39;6.28;;;2.10;;
71164;SDS011;58859;55.132;-1.586;2022-10-31T02:11:05;3.35;;;1.58;;
71164;SDS011;58859;55.132;-1.586;2022-10-31T02:13:31;11.18;;;2.33;;
71164;SDS011;58859;55.132;-1.586;2022-10-31T02:15:58;7.18;;;2.05;;
71164;SDS011;58859;55.132;-1.586;2022-10-31T02:18:25;3.17;;;1.30;;
71164;SDS011;58859;55.132;-1.586;2022-10-31T02:21:06;8.38;;;2.10;;
71164;SDS011;58859;55.132;-1.586;2022-10-31T02:23:45;6.97;;;1.58;;
71164;SDS011;58859;55.132;-1.586;2022-10-31T02:29:42;6.68;;;2.00;;
71164;SDS011;58859;55.132;-1.586;2022-10-31T02:42:42;5.80;;;1.77;;
71164;SDS011;58859;55.132;-1.586;2022-10-31T02:45:21;7.80;;;2.57;;
71164;SDS011;58859;55.132;-1.586;2022-10-31T02:47:52;6.35;;;1.83;;
71164;SDS011;58859;55.132;-1.586;2022-10-31T02:50:23;9.07;;;1.85;;
71164;SDS011;58859;55.132;-1.586;2022-10-31T02:52:52;6.45;;;1.80;;
71164;SDS011;58859;55.132;-1.586;2022-10-31T02:57:53;5.73;;;2.03;;
71164;SDS011;58859;55.132;-1.586;2022-10-31T03:00:21;4.38;;;1.50;;
71164;SDS011;58859;55.132;-1.586;2022-10-31T03:10:59;6.47;;;2.03;;
71164;SDS011;58859;55.132;-1.586;2022-10-31T03:13:32;7.43;;;1.60;;
71164;SDS011;58859;55.132;-1.586;2022-10-31T03:19:03;9.15;;;2.08;;
71164;SDS011;58859;55.132;-1.586;2022-10-31T03:24:13;8.18;;;1.70;;
71164;SDS011;58859;55.132;-1.586;2022-10-31T03:26:41;4.88;;;1.92;;
71164;SDS011;58859;55.132;-1.586;2022-10-31T03:29:10;7.33;;;1.93;;
71164;SDS011;58859;55.132;-1.586;2022-10-31T03:31:38;7.13;;;1.80;;
71164;SDS011;58859;55.132;-1.586;2022-10-31T03:34:08;5.03;;;2.30;;
71164;SDS011;58859;55.132;-1.586;2022-10-31T03:36:35;4.43;;;1.90;;
71164;SDS011;58859;55.132;-1.586;2022-10-31T03:39:04;8.23;;;1.80;;
71164;SDS011;58859;55.132;-1.586;2022-10-31T03:41:31;5.00;;;1.70;;
71164;SDS011;58859;55.132;-1.586;2022-10-31T03:44:05;5.97;;;2.30;;
71164;SDS011;58859;55.132;-1.586;2022-10-31T03:46:33;7.72;;;2.42;;
71164;SDS011;58859;55.132;-1.586;2022-10-31T03:48:59;7.93;;;1.90;;
71164;SDS011;58859;55.132;-1.586;2022-10-31T03:51:31;8.43;;;2.33;;
71164;SDS011;58859;55.132;-1.586;2022-10-31T03:56:52;7.35;;;2.40;;
71164;SDS011;58859;55.132;-1.586;2022-10-31T04:01:58;5.13;;;1.83;;
71164;SDS011;58859;55.132;-1.586;2022-10-31T04:04:30;7.78;;;2.22;;
71164;SDS011;58859;55.132;-1.586;2022-10-31T04:06:56;7.00;;;2.20;;
71164;SDS011;58859;55.132;-1.586;2022-10-31T04:09:22;7.15;;;2.42;;
71164;SDS011;58859;55.132;-1.586;2022-10-31T04:11:51;7.38;;;2.15;;
71164;SDS011;58859;55.132;-1.586;2022-10-31T04:14:19;12.10;;;2.97;;
71164;SDS011;58859;55.132;-1.586;2022-10-31T04:16:45;7.05;;;2.17;;
71164;SDS011;58859;55.132;-1.586;2022-10-31T04:19:11;7.05;;;2.15;;
71164;SDS011;58859;55.132;-1.586;2022-10-31T04:21:36;7.53;;;2.50;;
71164;SDS011;58859;55.132;-1.586;2022-10-31T04:24:02;7.67;;;2.27;;
71164;SDS011;58859;55.132;-1.586;2022-10-31T04:26:27;7.60;;;2.20;;
71164;SDS011;58859;55.132;-1.586;2022-10-31T04:28:53;4.90;;;2.30;;
71164;SDS011;58859;55.132;-1.586;2022-10-31T04:31:18;6.97;;;2.00;;
71164;SDS011;58859;55.132;-1.586;2022-10-31T04:33:43;6.40;;;1.97;;
71164;SDS011;58859;55.132;-1.586;2022-10-31T04:36:09;9.40;;;2.42;;
71164;SDS011;58859;55.132;-1.586;2022-10-31T04:38:34;9.27;;;2.80;;
71164;SDS011;58859;55.132;-1.586;2022-10-31T04:41:00;5.60;;;3.00;;
71164;SDS011;58859;55.132;-1.586;2022-10-31T04:43:25;7.30;;;2.90;;
71164;SDS011;58859;55.132;-1.586;2022-10-31T04:45:50;9.87;;;2.57;;
71164;SDS011;58859;55.132;-1.586;2022-10-31T04:48:16;9.60;;;3.15;;
71164;SDS011;58859;55.132;-1.586;2022-10-31T04:50:41;9.77;;;3.25;;
71164;SDS011;58859;55.132;-1.586;2022-10-31T04:53:07;6.33;;;2.83;;
71164;SDS011;58859;55.132;-1.586;2022-10-31T04:55:33;9.85;;;3.05;;
71164;SDS011;58859;55.132;-1.586;2022-10-31T04:57:58;7.40;;;2.80;;
71164;SDS011;58859;55.132;-1.586;2022-10-31T05:00:23;6.70;;;2.60;;
71164;SDS011;58859;55.132;-1.586;2022-10-31T05:02:50;9.60;;;3.47;;
71164;SDS011;58859;55.132;-1.586;2022-10-31T05:05:17;8.90;;;2.97;;
71164;SDS011;58859;55.132;-1.586;2022-10-31T05:07:45;10.77;;;3.25;;
71164;SDS011;58859;55.132;-1.586;2022-10-31T05:10:12;8.30;;;2.83;;
71164;SDS011;58859;55.132;-1.586;2022-10-31T05:12:45;13.23;;;2.87;;
71164;SDS011;58859;55.132;-1.586;2022-10-31T05:15:12;10.27;;;2.80;;
71164;SDS011;58859;55.132;-1.586;2022-10-31T05:17:38;6.13;;;3.08;;
71164;SDS011;58859;55.132;-1.586;2022-10-31T05:20:04;10.50;;;2.93;;
71164;SDS011;58859;55.132;-1.586;2022-10-31T05:22:29;10.17;;;3.40;;
71164;SDS011;58859;55.132;-1.586;2022-10-31T05:24:55;9.23;;;3.20;;
71164;SDS011;58859;55.132;-1.586;2022-10-31T05:27:20;8.17;;;2.80;;
71164;SDS011;58859;55.132;-1.586;2022-10-31T05:29:46;10.57;;;3.63;;
71164;SDS011;58859;55.132;-1.586;2022-10-31T05:32:11;7.00;;;2.50;;
71164;SDS011;58859;55.132;-1.586;2022-10-31T05:34:37;14.18;;;3.30;;
71164;SDS011;58859;55.132;-1.586;2022-10-31T05:37:02;10.20;;;3.57;;
71164;SDS011;58859;55.132;-1.586;2022-10-31T05:39:27;13.07;;;3.67;;
71164;SDS011;58859;55.132;-1.586;2022-10-31T05:41:53;9.23;;;2.80;;
71164;SDS011;58859;55.132;-1.586;2022-10-31T05:44:18;7.73;;;2.87;;
71164;SDS011;58859;55.132;-1.586;2022-10-31T05:46:45;9.97;;;2.97;;
71164;SDS011;58859;55.132;-1.586;2022-10-31T05:49:11;10.63;;;3.80;;
71164;SDS011;58859;55.132;-1.586;2022-10-31T05:51:36;9.17;;;3.50;;
71164;SDS011;58859;55.132;-1.586;2022-10-31T05:54:02;12.77;;;3.53;;
71164;SDS011;58859;55.132;-1.586;2022-10-31T05:56:27;10.88;;;3.85;;
71164;SDS011;58859;55.132;-1.586;2022-10-31T05:58:52;8.93;;;3.50;;
71164;SDS011;58859;55.132;-1.586;2022-10-31T06:01:18;13.80;;;3.67;;
71164;SDS011;58859;55.132;-1.586;2022-10-31T06:03:43;14.23;;;4.33;;
71164;SDS011;58859;55.132;-1.586;2022-10-31T06:06:09;12.60;;;5.40;;
71164;SDS011;58859;55.132;-1.586;2022-10-31T06:08:34;11.30;;;4.82;;
71164;SDS011;58859;55.132;-1.586;2022-10-31T06:11:00;13.60;;;4.90;;
71164;SDS011;58859;55.132;-1.586;2022-10-31T06:13:25;16.33;;;5.13;;
71164;SDS011;58859;55.132;-1.586;2022-10-31T06:15:51;16.48;;;6.50;;
71164;SDS011;58859;55.132;-1.586;2022-10-31T06:18:16;12.50;;;5.33;;
71164;SDS011;58859;55.132;-1.586;2022-10-31T06:20:41;15.80;;;5.87;;
71164;SDS011;58859;55.132;-1.586;2022-10-31T06:23:07;9.90;;;5.57;;
71164;SDS011;58859;55.132;-1.586;2022-10-31T06:25:32;14.73;;;5.83;;
71164;SDS011;58859;55.132;-1.586;2022-10-31T06:27:58;14.95;;;6.13;;
71164;SDS011;58859;55.132;-1.586;2022-10-31T06:30:24;16.43;;;6.50;;
71164;SDS011;58859;55.132;-1.586;2022-10-31T06:32:49;16.23;;;6.32;;
71164;SDS011;58859;55.132;-1.586;2022-10-31T06:35:15;15.00;;;6.37;;
71164;SDS011;58859;55.132;-1.586;2022-10-31T06:37:40;10.95;;;6.30;;
71164;SDS011;58859;55.132;-1.586;2022-10-31T06:40:06;17.13;;;7.60;;
71164;SDS011;58859;55.132;-1.586;2022-10-31T06:42:32;15.27;;;7.60;;
71164;SDS011;58859;55.132;-1.586;2022-10-31T06:44:57;12.57;;;6.70;;
71164;SDS011;58859;55.132;-1.586;2022-10-31T06:47:22;15.02;;;5.93;;
71164;SDS011;58859;55.132;-1.586;2022-10-31T06:49:48;14.93;;;6.70;;
71164;SDS011;58859;55.132;-1.586;2022-10-31T06:52:13;16.03;;;7.20;;
71164;SDS011;58859;55.132;-1.586;2022-10-31T06:54:39;15.50;;;6.47;;
71164;SDS011;58859;55.132;-1.586;2022-10-31T06:57:04;14.77;;;6.50;;
71164;SDS011;58859;55.132;-1.586;2022-10-31T06:59:29;18.85;;;7.15;;
71164;SDS011;58859;55.132;-1.586;2022-10-31T07:01:55;16.93;;;7.17;;
71164;SDS011;58859;55.132;-1.586;2022-10-31T07:04:22;17.73;;;7.70;;
71164;SDS011;58859;55.132;-1.586;2022-10-31T07:06:50;15.05;;;6.57;;
71164;SDS011;58859;55.132;-1.586;2022-10-31T07:09:16;16.05;;;6.55;;
71164;SDS011;58859;55.132;-1.586;2022-10-31T07:11:41;12.83;;;5.17;;
71164;SDS011;58859;55.132;-1.586;2022-10-31T07:14:07;15.20;;;6.40;;
71164;SDS011;58859;55.132;-1.586;2022-10-31T07:16:32;12.80;;;5.75;;
71164;SDS011;58859;55.132;-1.586;2022-10-31T07:18:58;11.38;;;5.57;;
71164;SDS011;58859;55.132;-1.586;2022-10-31T07:21:23;10.07;;;4.27;;
71164;SDS011;58859;55.132;-1.586;2022-10-31T07:23:48;15.63;;;6.87;;
71164;SDS011;58859;55.132;-1.586;2022-10-31T07:26:14;14.03;;;5.87;;
71164;SDS011;58859;55.132;-1.586;2022-10-31T07:28:39;10.37;;;5.83;;
71164;SDS011;58859;55.132;-1.586;2022-10-31T07:31:05;14.10;;;5.97;;
71164;SDS011;58859;55.132;-1.586;2022-10-31T07:33:31;14.93;;;5.50;;
71164;SDS011;58859;55.132;-1.586;2022-10-31T07:35:56;19.15;;;5.95;;
71164;SDS011;58859;55.132;-1.586;2022-10-31T07:38:21;14.47;;;6.97;;
71164;SDS011;58859;55.132;-1.586;2022-10-31T07:40:50;17.00;;;6.30;;
71164;SDS011;58859;55.132;-1.586;2022-10-31T07:43:17;15.70;;;6.82;;
71164;SDS011;58859;55.132;-1.586;2022-10-31T07:45:43;14.37;;;6.07;;
71164;SDS011;58859;55.132;-1.586;2022-10-31T07:48:08;15.17;;;5.93;;
71164;SDS011;58859;55.132;-1.586;2022-10-31T07:50:34;16.67;;;6.45;;
71164;SDS011;58859;55.132;-1.586;2022-10-31T07:55:32;11.23;;;4.60;;
71164;SDS011;58859;55.132;-1.586;2022-10-31T07:57:58;17.33;;;7.00;;
71164;SDS011;58859;55.132;-1.586;2022-10-31T08:00:24;15.93;;;6.30;;
71164;SDS011;58859;55.132;-1.586;2022-10-31T08:03:03;16.58;;;4.35;;
71164;SDS011;58859;55.132;-1.586;2022-10-31T08:05:30;12.35;;;5.90;;
71164;SDS011;58859;55.132;-1.586;2022-10-31T08:07:56;18.33;;;6.43;;
71164;SDS011;58859;55.132;-1.586;2022-10-31T08:10:23;15.10;;;4.63;;
71164;SDS011;58859;55.132;-1.586;2022-10-31T08:12:54;8.77;;;4.55;;
71164;SDS011;58859;55.132;-1.586;2022-10-31T08:15:23;15.35;;;5.55;;
71164;SDS011;58859;55.132;-1.586;2022-10-31T08:17:49;11.25;;;4.90;;
71164;SDS011;58859;55.132;-1.586;2022-10-31T08:20:15;9.63;;;4.70;;
71164;SDS011;58859;55.132;-1.586;2022-10-31T08:22:40;12.17;;;4.87;;
71164;SDS011;58859;55.132;-1.586;2022-10-31T08:25:06;16.53;;;4.57;;
71164;SDS011;58859;55.132;-1.586;2022-10-31T08:27:31;12.82;;;4.55;;
71164;SDS011;58859;55.132;-1.586;2022-10-31T08:29:57;10.30;;;4.47;;
71164;SDS011;58859;55.132;-1.586;2022-10-31T08:32:23;16.45;;;5.57;;
71164;SDS011;58859;55.132;-1.586;2022-10-31T08:34:49;11.55;;;5.25;;
71164;SDS011;58859;55.132;-1.586;2022-10-31T08:37:15;13.60;;;4.90;;
71164;SDS011;58859;55.132;-1.586;2022-10-31T08:39:45;17.88;;;4.78;;
71164;SDS011;58859;55.132;-1.586;2022-10-31T08:42:11;9.05;;;4.10;;
71164;SDS011;58859;55.132;-1.586;2022-10-31T08:44:36;13.07;;;5.13;;
71164;SDS011;58859;55.132;-1.586;2022-10-31T08:47:02;17.90;;;5.57;;
71164;SDS011;58859;55.132;-1.586;2022-10-31T08:49:27;10.03;;;4.03;;
71164;SDS011;58859;55.132;-1.586;2022-10-31T08:51:52;11.90;;;4.72;;
71164;SDS011;58859;55.132;-1.586;2022-10-31T08:54:18;15.80;;;4.60;;
71164;SDS011;58859;55.132;-1.586;2022-10-31T08:56:43;13.23;;;5.87;;
71164;SDS011;58859;55.132;-1.586;2022-10-31T08:59:09;17.73;;;5.70;;
71164;SDS011;58859;55.132;-1.586;2022-10-31T09:01:34;15.20;;;6.60;;
71164;SDS011;58859;55.132;-1.586;2022-10-31T09:04:00;13.30;;;6.23;;
71164;SDS011;58859;55.132;-1.586;2022-10-31T09:06:25;15.73;;;5.47;;
71164;SDS011;58859;55.132;-1.586;2022-10-31T09:08:50;11.33;;;4.93;;
71164;SDS011;58859;55.132;-1.586;2022-10-31T09:11:16;13.57;;;4.73;;
71164;SDS011;58859;55.132;-1.586;2022-10-31T09:13:41;12.68;;;5.10;;
71164;SDS011;58859;55.132;-1.586;2022-10-31T09:16:07;13.43;;;4.93;;
71164;SDS011;58859;55.132;-1.586;2022-10-31T09:18:32;8.17;;;4.60;;
71164;SDS011;58859;55.132;-1.586;2022-10-31T09:20:58;12.40;;;4.77;;
71164;SDS011;58859;55.132;-1.586;2022-10-31T09:23:24;16.95;;;5.07;;
71164;SDS011;58859;55.132;-1.586;2022-10-31T09:25:50;12.27;;;4.93;;
71164;SDS011;58859;55.132;-1.586;2022-10-31T09:28:17;17.92;;;5.55;;
71164;SDS011;58859;55.132;-1.586;2022-10-31T09:30:46;15.20;;;5.85;;
71164;SDS011;58859;55.132;-1.586;2022-10-31T09:33:12;19.88;;;5.38;;
71164;SDS011;58859;55.132;-1.586;2022-10-31T09:35:38;9.57;;;3.80;;
71164;SDS011;58859;55.132;-1.586;2022-10-31T09:38:05;15.70;;;5.53;;
71164;SDS011;58859;55.132;-1.586;2022-10-31T09:40:36;8.43;;;4.85;;
71164;SDS011;58859;55.132;-1.586;2022-10-31T09:52:24;12.35;;;4.72;;
71164;SDS011;58859;55.132;-1.586;2022-10-31T09:54:54;9.13;;;3.78;;
71164;SDS011;58859;55.132;-1.586;2022-10-31T09:57:27;10.80;;;4.38;;
71164;SDS011;58859;55.132;-1.586;2022-10-31T09:59:53;10.68;;;5.43;;
71164;SDS011;58859;55.132;-1.586;2022-10-31T10:05:17;13.73;;;5.25;;
71164;SDS011;58859;55.132;-1.586;2022-10-31T10:07:59;13.02;;;5.38;;
71164;SDS011;58859;55.132;-1.586;2022-10-31T10:18:24;12.60;;;5.10;;
71164;SDS011;58859;55.132;-1.586;2022-10-31T10:28:49;16.65;;;5.35;;
71164;SDS011;58859;55.132;-1.586;2022-10-31T10:31:21;15.98;;;5.60;;
71164;SDS011;58859;55.132;-1.586;2022-10-31T10:36:32;11.38;;;5.10;;
71164;SDS011;58859;55.132;-1.586;2022-10-31T10:39:04;14.80;;;4.88;;
71164;SDS011;58859;55.132;-1.586;2022-10-31T10:41:33;13.98;;;4.43;;
71164;SDS011;58859;55.132;-1.586;2022-10-31T10:43:59;17.87;;;6.60;;
71164;SDS011;58859;55.132;-1.586;2022-10-31T10:49:43;9.00;;;4.15;;
71164;SDS011;58859;55.132;-1.586;2022-10-31T10:52:16;8.57;;;4.65;;
71164;SDS011;58859;55.132;-1.586;2022-10-31T11:00:19;12.57;;;4.10;;
71164;SDS011;58859;55.132;-1.586;2022-10-31T11:02:49;14.57;;;4.60;;
71164;SDS011;58859;55.132;-1.586;2022-10-31T11:05:18;11.25;;;5.22;;
71164;SDS011;58859;55.132;-1.586;2022-10-31T11:07:45;14.15;;;4.88;;
71164;SDS011;58859;55.132;-1.586;2022-10-31T11:10:14;11.27;;;4.60;;
71164;SDS011;58859;55.132;-1.586;2022-10-31T11:12:40;10.18;;;4.47;;
71164;SDS011;58859;55.132;-1.586;2022-10-31T11:15:15;12.70;;;4.57;;
71164;SDS011;58859;55.132;-1.586;2022-10-31T11:17:46;7.03;;;3.08;;
71164;SDS011;58859;55.132;-1.586;2022-10-31T11:22:42;12.17;;;4.23;;
71164;SDS011;58859;55.132;-1.586;2022-10-31T11:25:20;11.02;;;3.58;;
71164;SDS011;58859;55.132;-1.586;2022-10-31T11:30:53;10.37;;;4.73;;
71164;SDS011;58859;55.132;-1.586;2022-10-31T11:33:30;15.25;;;5.25;;
71164;SDS011;58859;55.132;-1.586;2022-10-31T11:35:57;22.52;;;5.65;;
71164;SDS011;58859;55.132;-1.586;2022-10-31T11:38:24;11.70;;;4.40;;
71164;SDS011;58859;55.132;-1.586;2022-10-31T11:40:59;10.57;;;4.20;;
71164;SDS011;58859;55.132;-1.586;2022-10-31T11:43:31;8.80;;;3.97;;
71164;SDS011;58859;55.132;-1.586;2022-10-31T11:45:56;12.30;;;4.10;;
71164;SDS011;58859;55.132;-1.586;2022-10-31T11:48:22;9.07;;;3.50;;
71164;SDS011;58859;55.132;-1.586;2022-10-31T11:50:50;7.80;;;3.88;;
71164;SDS011;58859;55.132;-1.586;2022-10-31T11:53:18;10.52;;;4.07;;
71164;SDS011;58859;55.132;-1.586;2022-10-31T11:55:47;8.75;;;3.05;;
71164;SDS011;58859;55.132;-1.586;2022-10-31T11:58:26;10.98;;;3.90;;
71164;SDS011;58859;55.132;-1.586;2022-10-31T12:00:53;12.52;;;3.90;;
71164;SDS011;58859;55.132;-1.586;2022-10-31T12:05:49;10.25;;;3.50;;
71164;SDS011;58859;55.132;-1.586;2022-10-31T12:08:19;15.77;;;3.65;;
71164;SDS011;58859;55.132;-1.586;2022-10-31T12:10:51;9.23;;;3.80;;
71164;SDS011;58859;55.132;-1.586;2022-10-31T12:14:05;13.98;;;3.70;;
71164;SDS011;58859;55.132;-1.586;2022-10-31T12:22:13;12.60;;;3.67;;
71164;SDS011;58859;55.132;-1.586;2022-10-31T12:36:11;10.83;;;3.60;;
71164;SDS011;58859;55.132;-1.586;2022-10-31T12:38:42;10.77;;;3.00;;
71164;SDS011;58859;55.132;-1.586;2022-10-31T12:47:26;6.95;;;3.53;;
71164;SDS011;58859;55.132;-1.586;2022-10-31T12:50:14;2.70;;;2.10;;
71164;SDS011;58859;55.132;-1.586;2022-10-31T12:55:38;9.52;;;2.83;;
71164;SDS011;58859;55.132;-1.586;2022-10-31T12:58:25;5.28;;;2.28;;
71164;SDS011;58859;55.132;-1.586;2022-10-31T13:01:55;10.05;;;4.03;;
71164;SDS011;58859;55.132;-1.586;2022-10-31T13:06:20;14.38;;;3.80;;
71164;SDS011;58859;55.132;-1.586;2022-10-31T13:08:51;9.82;;;3.55;;
71164;SDS011;58859;55.132;-1.586;2022-10-31T13:11:31;2.97;;;1.73;;
71164;SDS011;58859;55.132;-1.586;2022-10-31T13:16:33;7.83;;;3.47;;
71164;SDS011;58859;55.132;-1.586;2022-10-31T13:19:03;6.03;;;1.90;;
71164;SDS011;58859;55.132;-1.586;2022-10-31T13:24:12;10.43;;;3.17;;
71164;SDS011;58859;55.132;-1.586;2022-10-31T13:26:46;8.80;;;3.30;;
71164;SDS011;58859;55.132;-1.586;2022-10-31T13:31:48;10.32;;;3.03;;
71164;SDS011;58859;55.132;-1.586;2022-10-31T13:34:33;12.63;;;4.22;;
71164;SDS011;58859;55.132;-1.586;2022-10-31T13:39:54;9.52;;;3.13;;
71164;SDS011;58859;55.132;-1.586;2022-10-31T13:45:08;25.88;;;8.18;;
71164;SDS011;58859;55.132;-1.586;2022-10-31T13:47:37;19.75;;;9.75;;
71164;SDS011;58859;55.132;-1.586;2022-10-31T13:50:05;19.58;;;7.88;;
71164;SDS011;58859;55.132;-1.586;2022-10-31T13:52:40;19.40;;;5.20;;
71164;SDS011;58859;55.132;-1.586;2022-10-31T13:55:07;21.88;;;5.80;;
71164;SDS011;58859;55.132;-1.586;2022-10-31T13:58:22;8.70;;;2.87;;
71164;SDS011;58859;55.132;-1.586;2022-10-31T14:03:39;9.90;;;3.13;;
71164;SDS011;58859;55.132;-1.586;2022-10-31T14:06:07;10.20;;;3.72;;
71164;SDS011;58859;55.132;-1.586;2022-10-31T14:08:34;12.88;;;4.30;;
71164;SDS011;58859;55.132;-1.586;2022-10-31T14:11:01;6.90;;;2.90;;
71164;SDS011;58859;55.132;-1.586;2022-10-31T14:16:26;10.40;;;3.45;;
71164;SDS011;58859;55.132;-1.586;2022-10-31T14:19:08;10.45;;;2.92;;
71164;SDS011;58859;55.132;-1.586;2022-10-31T14:21:40;7.13;;;2.65;;
71164;SDS011;58859;55.132;-1.586;2022-10-31T14:24:14;9.70;;;3.00;;
71164;SDS011;58859;55.132;-1.586;2022-10-31T14:26:55;9.77;;;3.28;;
71164;SDS011;58859;55.132;-1.586;2022-10-31T14:29:23;5.10;;;2.47;;
71164;SDS011;58859;55.132;-1.586;2022-10-31T14:51:50;9.15;;;2.78;;
71164;SDS011;58859;55.132;-1.586;2022-10-31T14:54:25;6.07;;;2.53;;
71164;SDS011;58859;55.132;-1.586;2022-10-31T14:56:55;10.02;;;2.55;;
71164;SDS011;58859;55.132;-1.586;2022-10-31T14:59:28;7.97;;;2.40;;
71164;SDS011;58859;55.132;-1.586;2022-10-31T15:01:56;6.47;;;2.80;;
71164;SDS011;58859;55.132;-1.586;2022-10-31T15:04:43;5.80;;;2.50;;
71164;SDS011;58859;55.132;-1.586;2022-10-31T15:09:42;7.20;;;2.80;;
71164;SDS011;58859;55.132;-1.586;2022-10-31T15:12:25;11.17;;;2.57;;
71164;SDS011;58859;55.132;-1.586;2022-10-31T15:14:54;9.80;;;3.70;;
71164;SDS011;58859;55.132;-1.586;2022-10-31T15:17:20;8.18;;;2.65;;
71164;SDS011;58859;55.132;-1.586;2022-10-31T15:19:47;12.40;;;3.85;;
71164;SDS011;58859;55.132;-1.586;2022-10-31T15:22:22;11.07;;;3.27;;
71164;SDS011;58859;55.132;-1.586;2022-10-31T15:24:48;7.78;;;3.25;;
71164;SDS011;58859;55.132;-1.586;2022-10-31T15:27:21;9.68;;;3.28;;
71164;SDS011;58859;55.132;-1.586;2022-10-31T15:29:51;10.10;;;2.95;;
71164;SDS011;58859;55.132;-1.586;2022-10-31T15:32:21;10.40;;;2.83;;
71164;SDS011;58859;55.132;-1.586;2022-10-31T15:34:51;7.88;;;2.63;;
71164;SDS011;58859;55.132;-1.586;2022-10-31T15:37:19;10.68;;;3.95;;
71164;SDS011;58859;55.132;-1.586;2022-10-31T15:39:46;8.25;;;2.80;;
71164;SDS011;58859;55.132;-1.586;2022-10-31T15:44:44;3.10;;;1.83;;
71164;SDS011;58859;55.132;-1.586;2022-10-31T15:47:15;9.25;;;3.75;;
71164;SDS011;58859;55.132;-1.586;2022-10-31T15:49:46;11.43;;;4.70;;
71164;SDS011;58859;55.132;-1.586;2022-10-31T15:52:15;9.55;;;2.90;;
71164;SDS011;58859;55.132;-1.586;2022-10-31T15:54:50;12.85;;;5.30;;
71164;SDS011;58859;55.132;-1.586;2022-10-31T15:57:20;7.03;;;2.50;;
71164;SDS011;58859;55.132;-1.586;2022-10-31T15:59:48;10.65;;;4.35;;
71164;SDS011;58859;55.132;-1.586;2022-10-31T16:02:17;11.07;;;4.85;;
71164;SDS011;58859;55.132;-1.586;2022-10-31T16:04:48;13.88;;;4.47;;
71164;SDS011;58859;55.132;-1.586;2022-10-31T16:07:18;11.55;;;3.95;;
71164;SDS011;58859;55.132;-1.586;2022-10-31T16:09:51;7.87;;;3.00;;
71164;SDS011;58859;55.132;-1.586;2022-10-31T16:12:18;7.72;;;3.22;;
71164;SDS011;58859;55.132;-1.586;2022-10-31T16:14:44;18.67;;;4.80;;
71164;SDS011;58859;55.132;-1.586;2022-10-31T16:17:13;9.90;;;3.40;;
71164;SDS011;58859;55.132;-1.586;2022-10-31T16:19:56;13.65;;;3.33;;
71164;SDS011;58859;55.132;-1.586;2022-10-31T16:22:26;3.75;;;2.33;;
71164;SDS011;58859;55.132;-1.586;2022-10-31T16:25:04;8.75;;;2.83;;
71164;SDS011;58859;55.132;-1.586;2022-10-31T16:27:39;9.65;;;3.38;;
71164;SDS011;58859;55.132;-1.586;2022-10-31T16:32:54;8.40;;;2.70;;
71164;SDS011;58859;55.132;-1.586;2022-10-31T16:35:26;14.85;;;3.45;;
71164;SDS011;58859;55.132;-1.586;2022-10-31T16:37:53;8.05;;;2.90;;
71164;SDS011;58859;55.132;-1.586;2022-10-31T16:40:18;12.27;;;2.90;;
71164;SDS011;58859;55.132;-1.586;2022-10-31T16:42:45;7.00;;;2.90;;
71164;SDS011;58859;55.132;-1.586;2022-10-31T16:45:17;10.43;;;3.08;;
71164;SDS011;58859;55.132;-1.586;2022-10-31T16:47:50;8.25;;;2.45;;
71164;SDS011;58859;55.132;-1.586;2022-10-31T16:50:33;13.13;;;3.22;;
71164;SDS011;58859;55.132;-1.586;2022-10-31T16:52:59;7.18;;;2.20;;
71164;SDS011;58859;55.132;-1.586;2022-10-31T16:55:24;5.07;;;2.57;;
71164;SDS011;58859;55.132;-1.586;2022-10-31T16:57:50;4.20;;;1.77;;
71164;SDS011;58859;55.132;-1.586;2022-10-31T17:00:24;12.80;;;3.15;;
71164;SDS011;58859;55.132;-1.586;2022-10-31T17:02:51;6.78;;;2.20;;
71164;SDS011;58859;55.132;-1.586;2022-10-31T17:05:20;6.72;;;2.50;;
71164;SDS011;58859;55.132;-1.586;2022-10-31T17:07:46;8.45;;;2.65;;
71164;SDS011;58859;55.132;-1.586;2022-10-31T17:10:13;7.90;;;2.30;;
71164;SDS011;58859;55.132;-1.586;2022-10-31T17:12:40;9.60;;;2.58;;
71164;SDS011;58859;55.132;-1.586;2022-10-31T17:15:14;10.43;;;2.60;;
71164;SDS011;58859;55.132;-1.586;2022-10-31T17:17:42;6.53;;;2.53;;
71164;SDS011;58859;55.132;-1.586;2022-10-31T17:23:02;6.82;;;2.75;;
71164;SDS011;58859;55.132;-1.586;2022-10-31T17:25:28;5.07;;;1.67;;